createdAt,value
2022-09-04T00:00:20.548Z,1.20
2022-09-04T00:03:40.949Z,1.10
2022-09-04T00:06:23.917Z,1.38
2022-09-04T00:09:08.958Z,1.30
2022-09-04T00:12:04.451Z,1.20
2022-09-04T00:15:02.595Z,1.00
2022-09-04T00:17:41.178Z,1.00
2022-09-04T00:20:23.715Z,0.98
2022-09-04T00:23:11.141Z,1.20
2022-09-04T00:25:47.210Z,1.00
2022-09-04T00:28:54.091Z,0.98
2022-09-04T00:31:38.817Z,1.15
2022-09-04T00:34:23.528Z,1.30
2022-09-04T00:37:03.204Z,1.63
2022-09-04T00:39:53.662Z,1.52
2022-09-04T00:43:07.181Z,1.25
2022-09-04T00:45:58.523Z,1.55
2022-09-04T00:49:09.078Z,1.08
2022-09-04T00:51:52.200Z,1.02
2022-09-04T00:54:24.875Z,1.30
2022-09-04T00:57:22.484Z,1.20
2022-09-04T01:00:11.002Z,1.30
2022-09-04T01:02:53.099Z,1.27
2022-09-04T01:05:34.487Z,1.50
2022-09-04T01:08:40.768Z,1.90
2022-09-04T01:11:29.471Z,1.75
2022-09-04T01:14:13.186Z,2.10
2022-09-04T01:17:12.111Z,2.38
2022-09-04T01:20:20.092Z,2.50
2022-09-04T01:22:52.949Z,1.77
2022-09-04T01:25:49.961Z,2.47
2022-09-04T01:28:50.038Z,2.60
2022-09-04T01:31:48.760Z,1.75
2022-09-04T01:34:52.547Z,1.95
2022-09-04T01:37:43.859Z,1.60
2022-09-04T01:40:36.143Z,2.10
2022-09-04T01:43:11.485Z,2.40
2022-09-04T01:46:08.199Z,2.05
2022-09-04T01:49:20.543Z,2.10
2022-09-04T01:52:08.337Z,2.40
2022-09-04T01:55:07.939Z,2.10
2022-09-04T01:58:06.257Z,2.10
2022-09-04T02:01:21.243Z,1.80
2022-09-04T02:04:36.263Z,2.57
2022-09-04T02:07:24.011Z,2.27
2022-09-04T02:10:24.148Z,2.42
2022-09-04T02:13:07.200Z,2.30
2022-09-04T02:15:57.742Z,2.67
2022-09-04T02:18:50.913Z,3.35
2022-09-04T02:22:01.214Z,3.28
2022-09-04T02:25:04.416Z,2.38
2022-09-04T02:27:59.613Z,3.35
2022-09-04T02:30:58.436Z,3.30
2022-09-04T02:33:49.012Z,4.07
2022-09-04T02:36:34.633Z,3.90
2022-09-04T02:39:18.350Z,2.70
2022-09-04T02:42:33.703Z,3.25
2022-09-04T02:45:53.764Z,4.80
2022-09-04T02:49:02.166Z,4.72
2022-09-04T02:52:17.349Z,3.30
2022-09-04T02:55:20.570Z,3.50
2022-09-04T02:58:18.006Z,3.45
2022-09-04T03:01:14.778Z,3.47
2022-09-04T03:03:52.485Z,3.28
2022-09-04T03:07:02.697Z,3.30
2022-09-04T03:09:48.160Z,3.47
2022-09-04T03:12:36.286Z,2.38
2022-09-04T03:15:35.839Z,2.30
2022-09-04T03:18:24.399Z,3.15
2022-09-04T03:21:03.545Z,2.45
2022-09-04T03:23:46.151Z,2.70
2022-09-04T03:26:21.948Z,2.80
2022-09-04T03:29:10.035Z,2.42
2022-09-04T03:32:01.202Z,2.63
2022-09-04T03:34:56.763Z,3.13
2022-09-04T03:38:18.470Z,3.00
2022-09-04T03:41:09.265Z,2.83
2022-09-04T03:44:03.241Z,2.28
2022-09-04T03:47:10.118Z,2.70
2022-09-04T03:49:54.531Z,2.33
2022-09-04T03:53:09.187Z,2.97
2022-09-04T03:56:06.811Z,2.53
2022-09-04T03:58:58.410Z,2.55
2022-09-04T04:01:43.191Z,2.53
2022-09-04T04:04:36.466Z,2.65
2022-09-04T04:07:41.223Z,2.65
2022-09-04T04:10:33.429Z,2.50
2022-09-04T04:13:21.638Z,2.83
2022-09-04T04:16:10.353Z,2.67
2022-09-04T04:18:49.026Z,2.78
2022-09-04T04:21:57.751Z,2.33
2022-09-04T04:24:59.365Z,2.50
2022-09-04T04:28:28.894Z,2.40
2022-09-04T04:31:25.474Z,2.03
2022-09-04T04:34:08.854Z,2.13
2022-09-04T04:36:56.607Z,2.00
2022-09-04T04:39:35.919Z,2.33
2022-09-04T04:42:22.204Z,1.95
2022-09-04T04:45:20.636Z,1.73
2022-09-04T04:48:47.984Z,2.13
2022-09-04T04:52:02.082Z,2.03
2022-09-04T04:55:06.169Z,1.80
2022-09-04T04:58:00.732Z,2.50
2022-09-04T05:01:06.137Z,2.15
2022-09-04T05:04:12.980Z,2.17
2022-09-04T05:06:51.487Z,2.20
2022-09-04T05:09:48.730Z,2.00
2022-09-04T05:12:32.102Z,2.53
2022-09-04T05:15:13.149Z,2.33
2022-09-04T05:18:18.461Z,2.22
2022-09-04T05:20:57.219Z,2.30
2022-09-04T05:23:55.725Z,2.80
2022-09-04T05:27:00.721Z,2.45
2022-09-04T05:29:39.495Z,2.25
2022-09-04T05:32:38.707Z,2.33
2022-09-04T05:35:12.434Z,1.95
2022-09-04T05:37:56.372Z,1.90
2022-09-04T05:41:06.082Z,1.75
2022-09-04T05:44:05.563Z,1.95
2022-09-04T05:46:41.602Z,1.67
2022-09-04T05:49:33.126Z,1.43
2022-09-04T05:52:17.566Z,1.40
2022-09-04T05:55:18.247Z,1.50
2022-09-04T05:58:05.296Z,1.40
2022-09-04T06:00:53.043Z,1.45
2022-09-04T06:03:36.293Z,1.70
2022-09-04T06:06:21.604Z,1.40
2022-09-04T06:09:09.480Z,1.42
2022-09-04T06:12:01.314Z,1.92
2022-09-04T06:14:49.658Z,2.40
2022-09-04T06:17:35.641Z,2.17
2022-09-04T06:20:29.122Z,2.30
2022-09-04T06:23:21.836Z,1.60
2022-09-04T06:26:21.843Z,1.90
2022-09-04T06:29:05.246Z,1.85
2022-09-04T06:31:53.299Z,1.70
2022-09-04T06:34:59.420Z,1.90
2022-09-04T06:37:57.302Z,1.95
2022-09-04T06:40:55.006Z,1.92
2022-09-04T06:43:48.751Z,1.40
2022-09-04T06:46:26.043Z,1.63
2022-09-04T06:49:09.837Z,1.60
2022-09-04T06:51:53.443Z,1.67
2022-09-04T06:54:38.032Z,1.50
2022-09-04T06:57:16.553Z,1.92
2022-09-04T07:00:09.661Z,1.63
2022-09-04T07:03:10.122Z,1.63
2022-09-04T07:05:51.952Z,2.05
2022-09-04T07:08:43.602Z,1.88
2022-09-04T07:11:34.742Z,2.10
2022-09-04T07:14:41.759Z,2.13
2022-09-04T07:17:55.022Z,2.10
2022-09-04T07:20:55.075Z,2.08
2022-09-04T07:23:40.202Z,2.20
2022-09-04T07:26:31.085Z,2.08
2022-09-04T07:29:34.901Z,2.50
2022-09-04T07:32:20.464Z,2.50
2022-09-04T07:35:19.376Z,2.50
2022-09-04T07:38:03.728Z,2.55
2022-09-04T07:40:42.292Z,2.80
2022-09-04T07:43:41.505Z,2.75
2022-09-04T07:46:34.659Z,1.80
2022-09-04T07:49:23.808Z,2.22
2022-09-04T07:52:10.540Z,2.97
2022-09-04T07:54:55.850Z,2.88
2022-09-04T07:57:43.546Z,2.92
2022-09-04T08:00:21.037Z,2.47
2022-09-04T08:03:13.451Z,3.20
2022-09-04T08:06:07.609Z,3.00
2022-09-04T08:08:56.250Z,2.80
2022-09-04T08:11:45.400Z,2.88
2022-09-04T08:14:18.588Z,3.35
2022-09-04T08:17:25.170Z,2.85
2022-09-04T08:20:36.568Z,3.42
2022-09-04T08:23:57.491Z,3.10
2022-09-04T08:26:44.554Z,3.35
2022-09-04T08:29:58.804Z,4.13
2022-09-04T08:32:43.608Z,4.07
2022-09-04T08:35:35.398Z,4.22
2022-09-04T08:38:43.120Z,4.38
2022-09-04T08:41:54.371Z,4.25
2022-09-04T08:44:49.247Z,3.80
2022-09-04T08:47:26.698Z,4.00
2022-09-04T08:50:10.467Z,4.20
2022-09-04T08:53:03.880Z,5.30
2022-09-04T08:56:18.543Z,7.68
2022-09-04T08:59:06.377Z,4.68
2022-09-04T09:02:05.000Z,4.25
2022-09-04T09:04:50.518Z,3.90
2022-09-04T09:08:01.017Z,3.80
2022-09-04T09:11:20.990Z,3.70
2022-09-04T09:14:12.046Z,3.50
2022-09-04T09:17:26.135Z,4.32
2022-09-04T09:20:20.052Z,4.00
2022-09-04T09:23:18.669Z,3.40
2022-09-04T09:26:15.785Z,3.38
2022-09-04T09:29:13.543Z,3.20
2022-09-04T09:32:37.322Z,3.33
2022-09-04T09:35:47.686Z,3.17
2022-09-04T09:38:32.337Z,2.92
2022-09-04T09:41:49.301Z,2.83
2022-09-04T09:44:38.343Z,2.72
2022-09-04T09:47:59.427Z,2.70
2022-09-04T09:50:44.486Z,2.83
2022-09-04T09:53:36.869Z,2.97
2022-09-04T09:56:53.589Z,2.40
2022-09-04T09:59:41.518Z,2.60
2022-09-04T10:02:38.312Z,3.05
2022-09-04T10:05:49.665Z,2.65
2022-09-04T10:08:43.349Z,2.67
2022-09-04T10:11:29.933Z,2.63
2022-09-04T10:14:24.896Z,2.30
2022-09-04T10:17:19.453Z,2.30
2022-09-04T10:20:36.537Z,2.40
2022-09-04T10:23:23.805Z,1.90
2022-09-04T10:26:07.339Z,1.85
2022-09-04T10:29:10.035Z,1.70
2022-09-04T10:32:11.391Z,1.90
2022-09-04T10:35:21.589Z,1.70
2022-09-04T10:38:31.847Z,1.63
2022-09-04T10:41:42.541Z,1.52
2022-09-04T10:44:40.737Z,1.50
2022-09-04T10:47:29.108Z,1.42
2022-09-04T10:50:02.323Z,1.63
2022-09-04T10:52:55.833Z,1.75
2022-09-04T10:56:01.262Z,1.58
2022-09-04T10:58:56.106Z,1.52
2022-09-04T11:02:12.427Z,1.60
2022-09-04T11:05:00.109Z,1.58
2022-09-04T11:07:45.131Z,1.42
2022-09-04T11:10:55.961Z,1.67
2022-09-04T11:13:38.062Z,1.50
2022-09-04T11:16:27.844Z,1.50
2022-09-04T11:19:10.348Z,1.52
2022-09-04T11:22:01.420Z,1.52
2022-09-04T11:25:19.033Z,1.10
2022-09-04T11:28:29.602Z,1.30
2022-09-04T11:31:22.563Z,1.30
2022-09-04T11:34:17.216Z,1.38
2022-09-04T11:37:29.175Z,1.48
2022-09-04T11:40:22.315Z,1.63
2022-09-04T11:43:04.058Z,1.70
2022-09-04T11:45:58.194Z,1.75
2022-09-04T11:48:47.591Z,1.40
2022-09-04T11:51:42.795Z,1.52
2022-09-04T11:54:59.595Z,1.23
2022-09-04T11:57:50.934Z,1.17
2022-09-04T12:00:23.782Z,1.42
2022-09-04T12:03:15.699Z,1.40
2022-09-04T12:06:13.722Z,1.52
2022-09-04T12:09:00.795Z,1.42
2022-09-04T12:12:01.011Z,2.08
2022-09-04T12:14:46.643Z,12.52
2022-09-04T12:17:55.528Z,3.35
2022-09-04T12:20:48.465Z,1.25
2022-09-04T12:23:27.177Z,2.75
2022-09-04T12:26:21.827Z,1.60
2022-09-04T12:29:00.518Z,1.63
2022-09-04T12:31:46.797Z,1.40
2022-09-04T12:34:42.256Z,1.20
2022-09-04T12:38:00.609Z,1.88
2022-09-04T12:40:45.473Z,1.20
2022-09-04T12:43:38.678Z,1.15
2022-09-04T12:46:24.263Z,1.58
2022-09-04T12:48:56.985Z,1.30
2022-09-04T12:51:43.642Z,0.93
2022-09-04T12:54:44.988Z,1.95
2022-09-04T12:57:24.427Z,1.48
2022-09-04T13:00:12.346Z,1.10
2022-09-04T13:03:11.325Z,1.10
2022-09-04T13:06:10.636Z,1.52
2022-09-04T13:08:50.996Z,1.50
2022-09-04T13:11:48.040Z,1.50
2022-09-04T13:14:34.425Z,1.02
2022-09-04T13:17:53.914Z,1.33
2022-09-04T13:20:40.140Z,1.30
2022-09-04T13:23:46.223Z,1.20
2022-09-04T13:27:04.646Z,1.02
2022-09-04T13:30:02.391Z,1.00
2022-09-04T13:32:59.356Z,1.00
2022-09-04T13:36:10.530Z,0.90
2022-09-04T13:39:18.078Z,1.30
2022-09-04T13:42:11.271Z,1.08
2022-09-04T13:45:05.478Z,1.02
2022-09-04T13:47:54.522Z,1.15
2022-09-04T13:50:31.188Z,1.15
2022-09-04T13:53:19.499Z,1.10
2022-09-04T13:55:57.256Z,1.02
2022-09-04T13:58:33.234Z,1.20
2022-09-04T14:01:15.435Z,1.00
2022-09-04T14:03:57.168Z,0.98
2022-09-04T14:06:31.738Z,1.02
2022-09-04T14:09:06.257Z,1.13
2022-09-04T14:12:06.342Z,1.15
2022-09-04T14:14:45.689Z,1.13
2022-09-04T14:17:26.918Z,1.08
2022-09-04T14:19:59.670Z,1.10
2022-09-04T14:22:52.071Z,1.00
2022-09-04T14:25:50.922Z,1.00
2022-09-04T14:28:48.308Z,0.90
2022-09-04T14:31:26.223Z,1.02
2022-09-04T14:34:16.007Z,0.90
2022-09-04T14:37:10.199Z,1.15
2022-09-04T14:40:13.376Z,0.82
2022-09-04T14:43:16.995Z,0.80
2022-09-04T14:46:33.455Z,0.93
2022-09-04T14:49:12.462Z,0.98
2022-09-04T14:51:47.478Z,0.95
2022-09-04T14:54:27.829Z,0.98
2022-09-04T14:57:11.501Z,1.10
2022-09-04T15:00:09.194Z,0.90
2022-09-04T15:02:54.069Z,0.97
2022-09-04T15:05:48.471Z,0.90
2022-09-04T15:08:36.789Z,0.98
2022-09-04T15:11:34.602Z,0.85
2022-09-04T15:14:26.185Z,0.85
2022-09-04T15:17:04.793Z,0.80
2022-09-04T15:19:55.050Z,0.90
2022-09-04T15:22:46.319Z,1.20
2022-09-04T15:25:56.756Z,0.90
2022-09-04T15:28:38.776Z,1.00
2022-09-04T15:31:17.056Z,1.00
2022-09-04T15:33:50.013Z,1.02
2022-09-04T15:36:27.548Z,0.80
2022-09-04T15:39:03.681Z,0.90
2022-09-04T15:41:42.090Z,1.00
2022-09-04T15:44:29.919Z,0.85
2022-09-04T15:47:12.538Z,1.45
2022-09-04T15:50:00.347Z,0.90
2022-09-04T15:52:44.616Z,1.00
2022-09-04T15:55:31.349Z,0.90
2022-09-04T15:58:16.312Z,0.85
2022-09-04T16:01:08.040Z,1.05
2022-09-04T16:04:07.174Z,0.90
2022-09-04T16:06:47.751Z,0.95
2022-09-04T16:09:52.159Z,0.88
2022-09-04T16:12:33.192Z,0.70
2022-09-04T16:15:16.818Z,1.00
2022-09-04T16:17:54.480Z,0.70
2022-09-04T16:20:37.665Z,0.90
2022-09-04T16:23:14.981Z,0.85
2022-09-04T16:25:50.292Z,0.90
2022-09-04T16:28:26.578Z,1.10
2022-09-04T16:31:06.365Z,0.90
2022-09-04T16:33:44.829Z,0.93
2022-09-04T16:36:23.389Z,1.13
2022-09-04T16:39:05.458Z,1.08
2022-09-04T16:41:47.505Z,1.00
2022-09-04T16:44:30.640Z,1.02
2022-09-04T16:47:17.789Z,0.90
2022-09-04T16:49:57.573Z,0.93
2022-09-04T16:53:12.523Z,0.93
2022-09-04T16:56:35.934Z,0.98
2022-09-04T16:59:22.001Z,1.05
2022-09-04T17:02:36.121Z,0.93
2022-09-04T17:05:18.088Z,0.73
2022-09-04T17:08:02.894Z,1.00
2022-09-04T17:10:43.197Z,0.90
2022-09-04T17:13:31.885Z,0.90
2022-09-04T17:16:17.389Z,0.90
2022-09-04T17:18:54.506Z,0.93
2022-09-04T17:28:56.729Z,0.90
2022-09-04T17:29:09.352Z,1.08
2022-09-04T17:29:22.443Z,0.98
2022-09-04T17:31:55.545Z,1.00
2022-09-04T17:40:33.848Z,1.02
2022-09-04T17:40:42.298Z,1.00
2022-09-04T17:41:35.710Z,0.90
2022-09-04T17:45:09.168Z,1.00
2022-09-04T17:47:43.039Z,1.05
2022-09-04T17:50:19.226Z,1.17
2022-09-04T17:53:04.979Z,1.25
2022-09-04T17:55:47.642Z,1.30
2022-09-04T17:58:41.751Z,1.23
2022-09-04T18:01:21.174Z,1.30
2022-09-04T18:04:20.356Z,1.20
2022-09-04T18:07:28.785Z,1.13
2022-09-04T18:10:31.290Z,0.98
2022-09-04T18:13:08.781Z,1.00
2022-09-04T18:16:33.373Z,1.10
2022-09-04T18:19:32.630Z,1.02
2022-09-04T18:22:40.106Z,1.10
2022-09-04T18:25:24.712Z,0.90
2022-09-04T18:28:06.501Z,0.90
2022-09-04T18:37:10.885Z,0.85
2022-09-04T18:37:19.446Z,1.25
2022-09-04T18:37:44.572Z,0.85
2022-09-04T18:41:00.775Z,1.00
2022-09-04T18:50:20.338Z,1.17
2022-09-04T18:50:35.453Z,1.08
2022-09-04T18:50:51.124Z,1.10
2022-09-04T18:52:43.735Z,1.00
2022-09-04T18:55:24.898Z,1.13
2022-09-04T18:58:12.959Z,1.30
2022-09-04T19:00:54.906Z,1.20
2022-09-04T19:03:48.921Z,1.10
2022-09-04T19:06:55.810Z,1.30
2022-09-04T19:10:08.615Z,1.52
2022-09-04T19:12:47.146Z,1.40
2022-09-04T19:15:52.131Z,1.20
2022-09-04T19:18:43.688Z,0.90
2022-09-04T19:21:29.910Z,1.20
2022-09-04T19:24:37.754Z,1.08
2022-09-04T19:27:27.119Z,1.00
2022-09-04T19:30:18.174Z,1.10
2022-09-04T19:33:31.762Z,1.10
2022-09-04T19:36:12.553Z,0.98
2022-09-04T19:45:55.886Z,1.13
2022-09-04T19:46:08.157Z,1.00
2022-09-04T19:46:12.707Z,1.10
2022-09-04T19:48:37.581Z,1.20
2022-09-04T19:53:21.294Z,0.90
2022-09-04T19:55:23.059Z,1.30
2022-09-04T19:58:11.208Z,1.23
2022-09-04T20:00:48.833Z,1.20
2022-09-04T20:03:48.225Z,1.10
2022-09-04T20:06:27.303Z,1.17
2022-09-04T20:09:18.180Z,1.23
2022-09-04T20:11:57.750Z,1.25
2022-09-04T20:15:04.442Z,1.15
2022-09-04T20:18:28.276Z,1.33
2022-09-04T20:21:25.820Z,1.35
2022-09-04T20:24:05.764Z,1.30
2022-09-04T20:27:07.956Z,1.20
2022-09-04T20:29:42.904Z,1.48
2022-09-04T20:32:24.266Z,1.23
2022-09-04T20:35:31.847Z,1.30
2022-09-04T20:38:41.373Z,1.35
2022-09-04T20:41:39.736Z,1.20
2022-09-04T20:44:27.886Z,1.30
2022-09-04T20:52:44.941Z,1.00
2022-09-04T20:52:53.856Z,1.27
2022-09-04T20:54:08.727Z,1.20
2022-09-04T20:59:47.039Z,1.30
2022-09-04T21:03:14.704Z,1.33
2022-09-04T21:03:28.187Z,1.20
2022-09-04T21:06:39.988Z,1.33
2022-09-04T21:09:22.585Z,1.60
2022-09-04T21:12:24.260Z,1.17
2022-09-04T21:15:12.818Z,1.45
2022-09-04T21:17:54.556Z,1.40
2022-09-04T21:21:00.318Z,1.33
2022-09-04T21:23:59.630Z,1.33
2022-09-04T21:27:02.780Z,1.40
2022-09-04T21:29:59.247Z,1.70
2022-09-04T21:32:49.928Z,1.30
2022-09-04T21:35:52.386Z,1.30
2022-09-04T21:38:49.330Z,1.52
2022-09-04T21:41:58.421Z,1.42
2022-09-04T21:44:38.985Z,1.20
2022-09-04T21:47:44.726Z,1.50
2022-09-04T21:50:39.858Z,1.40
2022-09-04T21:53:31.720Z,1.38
2022-09-04T22:00:14.271Z,1.38
2022-09-04T22:02:39.333Z,1.58
2022-09-04T22:03:02.136Z,1.50
2022-09-04T22:05:50.075Z,1.45
2022-09-04T22:13:34.477Z,1.30
2022-09-04T22:13:41.885Z,1.73
2022-09-04T22:14:57.830Z,1.45
2022-09-04T22:17:56.933Z,1.40
2022-09-04T22:20:51.230Z,1.50
2022-09-04T22:23:32.616Z,1.42
2022-09-04T22:26:23.302Z,1.33
2022-09-04T22:29:37.520Z,1.67
2022-09-04T22:32:33.969Z,1.30
2022-09-04T22:35:14.535Z,1.80
2022-09-04T22:38:20.806Z,1.50
2022-09-04T22:41:14.701Z,1.60
2022-09-04T22:43:57.389Z,1.30
2022-09-04T22:47:26.609Z,1.42
2022-09-04T22:50:08.225Z,1.50
2022-09-04T22:52:59.206Z,1.63
2022-09-04T22:56:24.410Z,1.50
2022-09-04T22:59:27.121Z,1.80
2022-09-04T23:03:06.650Z,1.63
2022-09-04T23:05:48.034Z,1.75
2022-09-04T23:13:47.862Z,1.42
2022-09-04T23:14:01.713Z,1.70
2022-09-04T23:15:20.999Z,1.65
2022-09-04T23:19:41.255Z,1.75
2022-09-04T23:26:35.343Z,1.70
2022-09-04T23:26:54.235Z,1.40
2022-09-04T23:27:49.836Z,1.73
2022-09-04T23:30:26.579Z,1.77
2022-09-04T23:33:09.003Z,1.70
2022-09-04T23:36:00.481Z,1.63
2022-09-04T23:38:49.906Z,1.38
2022-09-04T23:41:53.382Z,2.05
2022-09-04T23:44:45.539Z,1.75
2022-09-04T23:47:47.894Z,1.50
2022-09-04T23:50:37.200Z,1.27
2022-09-04T23:53:42.989Z,1.27
2022-09-04T23:56:45.530Z,1.55
2022-09-04T23:59:35.772Z,1.50
